Time;durP1;ratioP1;P1;durP2;ratioP2;P2;SDS_P1;SDS_P2;PMS_P1;PMS_P2;Temp;Humidity;BMP_temperature;BMP_pressure;BME280_temperature;BME280_humidity;BME280_pressure;Samples;Min_cycle;Max_cycle;Signal;HPM_P1;HPM_P2
2023/09/25 00:00:23;;;;;;;1.30;1.20;;;14.70;75.50;;;;;;5115779;28;20034;-29
2023/09/25 00:02:49;;;;;;;2.70;1.30;;;14.70;75.60;;;;;;5115681;28;20055;-33
2023/09/25 00:05:16;;;;;;;1.63;1.30;;;14.60;75.60;;;;;;5115856;28;20047;-48
2023/09/25 00:07:42;;;;;;;1.42;1.17;;;14.60;75.60;;;;;;5116079;28;20412;-30
2023/09/25 00:10:07;;;;;;;3.22;1.30;;;14.60;75.60;;;;;;5097274;28;20024;-30
2023/09/25 00:12:33;;;;;;;2.72;1.33;;;14.60;75.60;;;;;;5115517;28;20035;-37
2023/09/25 00:14:58;;;;;;;1.33;1.20;;;14.60;75.60;;;;;;5115572;28;20024;-36
2023/09/25 00:17:24;;;;;;;3.47;1.60;;;14.50;75.60;;;;;;5115638;28;20031;-30
2023/09/25 00:19:49;;;;;;;2.03;1.20;;;14.60;75.60;;;;;;5115693;28;20027;-31
2023/09/25 00:22:15;;;;;;;1.63;1.20;;;14.60;75.60;;;;;;5115335;28;20483;-29
2023/09/25 00:24:41;;;;;;;1.98;1.25;;;14.50;75.60;;;;;;5115241;28;20016;-32
2023/09/25 00:27:06;;;;;;;1.70;1.23;;;14.50;76.20;;;;;;5115324;28;20012;-31
2023/09/25 00:29:32;;;;;;;1.83;1.35;;;14.50;75.60;;;;;;5115337;28;20404;-36
2023/09/25 00:31:58;;;;;;;1.95;1.33;;;14.50;75.60;;;;;;5115072;28;20055;-31
2023/09/25 00:34:23;;;;;;;3.17;1.30;;;14.50;75.60;;;;;;5115663;28;20028;-31
2023/09/25 00:36:49;;;;;;;2.10;1.40;;;14.50;75.60;;;;;;5115172;28;20020;-31
2023/09/25 00:39:14;;;;;;;3.28;1.50;;;14.40;75.50;;;;;;5115370;28;20030;-34
2023/09/25 00:41:40;;;;;;;3.85;1.20;;;14.40;75.60;;;;;;5114955;28;20072;-34
2023/09/25 00:44:05;;;;;;;2.03;1.20;;;14.40;75.60;;;;;;5115125;28;20027;-32
2023/09/25 00:46:31;;;;;;;1.42;1.30;;;14.40;75.60;;;;;;5115254;28;20074;-39
2023/09/25 00:48:57;;;;;;;1.50;1.38;;;14.40;75.60;;;;;;5114786;28;20026;-34
2023/09/25 00:51:23;;;;;;;1.95;1.20;;;14.40;75.60;;;;;;5115368;28;20019;-36
2023/09/25 00:53:49;;;;;;;2.55;1.45;;;14.30;75.60;;;;;;5114928;28;20032;-34
2023/09/25 00:56:15;;;;;;;1.73;1.25;;;14.30;75.60;;;;;;5115046;28;20036;-35
2023/09/25 00:58:41;;;;;;;1.65;1.13;;;14.30;75.60;;;;;;5114722;28;20493;-35
2023/09/25 01:01:09;;;;;;;2.50;1.30;;;14.30;75.60;;;;;;5114702;28;20031;-35
2023/09/25 01:03:35;;;;;;;1.67;1.17;;;14.30;75.60;;;;;;5113161;28;20028;-33
2023/09/25 01:06:01;;;;;;;1.50;1.08;;;14.30;75.60;;;;;;5114665;28;20027;-35
2023/09/25 01:08:27;;;;;;;1.52;1.20;;;14.30;75.60;;;;;;5114714;28;20024;-43
2023/09/25 01:10:53;;;;;;;1.67;1.00;;;14.20;75.60;;;;;;5114603;28;20030;-35
2023/09/25 01:13:18;;;;;;;1.58;1.02;;;14.20;75.60;;;;;;5114446;28;20034;-35
2023/09/25 01:15:45;;;;;;;1.67;0.90;;;14.20;75.60;;;;;;5114779;28;20481;-35
2023/09/25 01:18:11;;;;;;;1.70;1.13;;;14.30;75.60;;;;;;5114212;28;20393;-35
2023/09/25 01:20:37;;;;;;;2.15;1.17;;;14.20;75.60;;;;;;5096001;28;20027;-32
2023/09/25 01:23:03;;;;;;;2.03;1.40;;;14.20;75.60;;;;;;5114334;28;20200;-35
2023/09/25 01:25:29;;;;;;;3.10;1.30;;;14.20;75.50;;;;;;5114454;28;20019;-35
2023/09/25 01:27:55;;;;;;;2.03;1.10;;;14.20;75.50;;;;;;5114121;28;20540;-35
2023/09/25 01:30:20;;;;;;;1.23;1.10;;;14.20;75.50;;;;;;5114174;28;20032;-34
2023/09/25 01:32:48;;;;;;;1.42;1.15;;;14.10;75.50;;;;;;5114137;28;20115;-34
2023/09/25 01:35:18;;;;;;;1.55;1.45;;;14.10;75.60;;;;;;5114181;28;20051;-35
2023/09/25 01:37:45;;;;;;;2.47;1.10;;;14.10;75.60;;;;;;5095855;28;20028;-35
2023/09/25 01:40:13;;;;;;;2.67;1.15;;;14.10;75.60;;;;;;5114279;28;20389;-35
2023/09/25 01:42:39;;;;;;;1.63;1.30;;;14.10;75.60;;;;;;5114114;28;20609;-36
2023/09/25 01:45:06;;;;;;;1.38;1.15;;;14.10;75.60;;;;;;5113918;28;20107;-38
2023/09/25 01:47:31;;;;;;;1.67;1.20;;;14.10;75.60;;;;;;5114038;28;20541;-36
2023/09/25 01:49:57;;;;;;;1.77;1.30;;;14.10;75.60;;;;;;5113987;28;20115;-40
2023/09/25 01:52:23;;;;;;;2.10;1.10;;;14.10;75.60;;;;;;5113755;28;20110;-38
2023/09/25 01:54:50;;;;;;;2.10;1.13;;;14.10;75.60;;;;;;5113752;28;20040;-35
2023/09/25 01:57:16;;;;;;;2.03;1.30;;;14.00;75.60;;;;;;5113796;28;20035;-38
2023/09/25 01:59:41;;;;;;;1.55;1.25;;;14.00;75.60;;;;;;5113737;28;20085;-37
2023/09/25 02:02:07;;;;;;;2.13;1.38;;;14.00;75.70;;;;;;5113568;28;20469;-36
2023/09/25 02:04:32;;;;;;;2.08;1.40;;;14.00;75.80;;;;;;5113546;28;20020;-36
2023/09/25 02:06:58;;;;;;;1.95;1.05;;;14.00;75.80;;;;;;5113825;28;20083;-36
2023/09/25 02:09:24;;;;;;;2.60;1.15;;;14.00;75.80;;;;;;5113489;28;20034;-35
2023/09/25 02:11:50;;;;;;;1.73;1.10;;;14.00;75.90;;;;;;5113478;28;20028;-34
2023/09/25 02:14:15;;;;;;;2.80;1.33;;;13.90;75.90;;;;;;5113224;28;20024;-37
2023/09/25 02:16:41;;;;;;;1.42;1.33;;;13.90;76.00;;;;;;5095434;28;20011;-35
2023/09/25 02:19:07;;;;;;;1.20;1.10;;;13.90;76.00;;;;;;5113295;28;20084;-35
2023/09/25 02:21:32;;;;;;;1.83;1.10;;;13.90;76.00;;;;;;5113463;28;20027;-35
2023/09/25 02:23:58;;;;;;;2.67;1.35;;;13.90;76.10;;;;;;5113561;28;20430;-40
2023/09/25 02:26:25;;;;;;;2.15;1.20;;;13.90;76.10;;;;;;5094826;28;20514;-35
2023/09/25 02:28:51;;;;;;;2.50;1.35;;;13.90;76.10;;;;;;5113080;28;20043;-35
2023/09/25 02:31:16;;;;;;;3.38;1.52;;;13.80;76.10;;;;;;5113066;28;20023;-34
2023/09/25 02:33:42;;;;;;;2.92;1.25;;;13.80;76.20;;;;;;5113145;28;20435;-35
2023/09/25 02:36:11;;;;;;;1.70;1.30;;;13.80;76.30;;;;;;5113121;28;20515;-35
2023/09/25 02:38:36;;;;;;;2.38;1.20;;;13.80;76.20;;;;;;5112933;28;20042;-35
2023/09/25 02:41:02;;;;;;;2.08;1.30;;;13.80;76.20;;;;;;5112742;28;20453;-33
2023/09/25 02:43:27;;;;;;;2.50;1.23;;;13.80;76.30;;;;;;5113216;28;20110;-35
2023/09/25 02:45:53;;;;;;;3.42;1.40;;;13.80;76.30;;;;;;5112733;28;20023;-35
2023/09/25 02:48:19;;;;;;;2.35;1.42;;;13.70;76.30;;;;;;5112929;28;20530;-35
2023/09/25 02:50:47;;;;;;;1.77;1.40;;;13.70;76.40;;;;;;5112921;28;20028;-36
2023/09/25 02:53:12;;;;;;;2.60;1.17;;;13.70;76.40;;;;;;5112879;28;20088;-35
2023/09/25 02:55:38;;;;;;;4.55;1.67;;;13.70;76.40;;;;;;5112998;28;20024;-33
2023/09/25 02:58:04;;;;;;;2.45;1.38;;;13.70;76.50;;;;;;5112889;28;20082;-40
2023/09/25 03:00:30;;;;;;;1.63;1.23;;;13.70;76.50;;;;;;5112540;28;20024;-34
2023/09/25 03:02:57;;;;;;;2.50;1.20;;;13.70;76.60;;;;;;5112716;28;20023;-40
2023/09/25 03:05:24;;;;;;;3.97;1.35;;;13.70;76.70;;;;;;5112358;28;20097;-36
2023/09/25 03:07:49;;;;;;;2.53;1.38;;;13.70;76.60;;;;;;5112407;28;20020;-40
2023/09/25 03:10:16;;;;;;;1.27;1.17;;;13.70;76.70;;;;;;5112371;28;20092;-37
2023/09/25 03:12:42;;;;;;;2.17;1.20;;;13.60;76.70;;;;;;5112186;28;20055;-34
2023/09/25 03:15:08;;;;;;;2.53;1.50;;;13.60;76.70;;;;;;5112371;28;20494;-35
2023/09/25 03:17:37;;;;;;;1.63;1.25;;;13.60;76.70;;;;;;5112601;28;20039;-38
2023/09/25 03:20:14;;;;;;;2.10;1.50;;;13.60;76.70;;;;;;5112294;28;20030;-36
2023/09/25 03:22:40;;;;;;;1.73;1.20;;;13.60;76.80;;;;;;5112357;28;20473;-35
2023/09/25 03:25:06;;;;;;;1.73;1.33;;;13.60;76.80;;;;;;5112360;28;20024;-36
2023/09/25 03:27:32;;;;;;;3.10;1.30;;;13.60;76.90;;;;;;5111648;28;20047;-36
2023/09/25 03:29:58;;;;;;;2.13;1.33;;;13.60;76.90;;;;;;5112012;28;20050;-35
2023/09/25 03:32:23;;;;;;;2.55;1.30;;;13.60;76.90;;;;;;5112132;28;20027;-35
2023/09/25 03:34:49;;;;;;;2.75;1.10;;;13.60;76.90;;;;;;5112287;28;20035;-35
2023/09/25 03:37:14;;;;;;;2.35;1.50;;;13.60;76.90;;;;;;5111987;28;20104;-36
2023/09/25 03:39:40;;;;;;;1.73;1.40;;;13.60;76.90;;;;;;5111894;28;20078;-36
2023/09/25 03:42:05;;;;;;;2.47;1.42;;;13.60;76.90;;;;;;5111797;28;20055;-38
2023/09/25 03:44:31;;;;;;;2.63;1.60;;;13.60;76.90;;;;;;5112264;28;20024;-31
2023/09/25 03:46:57;;;;;;;2.08;1.50;;;13.70;77.00;;;;;;5111800;28;20023;-29
2023/09/25 03:49:22;;;;;;;3.08;1.30;;;13.60;77.00;;;;;;5111933;28;20032;-29
2023/09/25 03:51:48;;;;;;;2.60;1.52;;;13.70;77.10;;;;;;5111609;28;20119;-42
2023/09/25 03:54:14;;;;;;;2.83;1.35;;;13.70;77.10;;;;;;5111787;28;20512;-49
2023/09/25 03:56:39;;;;;;;1.63;1.30;;;13.60;77.10;;;;;;5111468;28;20496;-43
2023/09/25 03:59:05;;;;;;;2.13;1.30;;;13.60;77.10;;;;;;5111786;28;20116;-45
2023/09/25 04:01:31;;;;;;;1.60;1.50;;;13.60;77.10;;;;;;5111513;28;20028;-35
2023/09/25 04:03:56;;;;;;;1.55;1.30;;;13.60;77.10;;;;;;5111703;28;20020;-35
2023/09/25 04:06:22;;;;;;;2.35;1.55;;;13.60;77.20;;;;;;5111629;28;20038;-34
2023/09/25 04:08:48;;;;;;;4.45;1.60;;;13.60;77.20;;;;;;5111873;28;20388;-37
2023/09/25 04:11:14;;;;;;;1.88;1.38;;;13.60;77.20;;;;;;5111449;28;20085;-30
2023/09/25 04:13:40;;;;;;;1.45;1.27;;;13.60;77.30;;;;;;5111688;28;20420;-35
2023/09/25 04:16:06;;;;;;;2.13;1.60;;;13.60;77.30;;;;;;5111466;28;20036;-30
2023/09/25 04:18:32;;;;;;;4.00;1.30;;;13.60;77.30;;;;;;5111690;28;20076;-30
2023/09/25 04:21:02;;;;;;;3.75;1.30;;;13.60;77.30;;;;;;5111388;28;20108;-33
2023/09/25 04:23:28;;;;;;;2.25;1.65;;;13.60;77.40;;;;;;5111238;28;20095;-29
2023/09/25 04:26:00;;;;;;;4.55;1.52;;;13.60;77.40;;;;;;5111605;28;20076;-30
2023/09/25 04:28:29;;;;;;;2.20;1.50;;;13.60;77.40;;;;;;5092931;28;20558;-38
2023/09/25 04:30:57;;;;;;;1.80;1.35;;;13.60;77.50;;;;;;5111272;28;20051;-34
2023/09/25 04:33:24;;;;;;;2.78;1.73;;;13.60;77.50;;;;;;5111444;28;20015;-40
2023/09/25 04:35:52;;;;;;;1.50;1.33;;;13.60;77.60;;;;;;5111566;28;20103;-34
2023/09/25 04:38:18;;;;;;;1.45;1.25;;;13.60;77.60;;;;;;5113536;28;20024;-34
2023/09/25 04:40:46;;;;;;;2.13;1.40;;;13.60;77.60;;;;;;5115272;28;20508;-35
2023/09/25 04:43:12;;;;;;;1.42;1.23;;;13.60;77.70;;;;;;5115441;28;20024;-34
2023/09/25 04:45:38;;;;;;;1.77;1.27;;;13.60;77.70;;;;;;5115274;28;20019;-35
2023/09/25 04:48:04;;;;;;;1.45;1.20;;;13.50;78.30;;;;;;5114860;28;20019;-35
2023/09/25 04:50:29;;;;;;;2.85;1.90;;;13.50;77.70;;;;;;5096941;28;20441;-43
2023/09/25 04:52:55;;;;;;;3.28;1.40;;;13.50;77.70;;;;;;5115349;28;20111;-35
2023/09/25 04:55:21;;;;;;;3.78;1.30;;;13.50;77.70;;;;;;5114778;28;20063;-35
2023/09/25 04:57:47;;;;;;;3.47;1.30;;;13.50;77.70;;;;;;5114966;28;20362;-33
2023/09/25 05:00:21;;;;;;;3.70;2.00;;;13.50;77.70;;;;;;5115006;28;20369;-33
2023/09/25 05:02:48;;;;;;;2.58;1.70;;;13.50;77.80;;;;;;5114802;28;20045;-35
2023/09/25 05:05:15;;;;;;;2.50;1.50;;;13.50;77.80;;;;;;5096471;28;20040;-35
2023/09/25 05:07:42;;;;;;;1.80;1.40;;;13.50;77.80;;;;;;5115110;28;20465;-35
2023/09/25 05:10:12;;;;;;;2.38;1.40;;;13.50;77.90;;;;;;5114908;28;20499;-35
2023/09/25 05:12:41;;;;;;;2.03;1.15;;;13.50;77.90;;;;;;5114788;28;20126;-36
2023/09/25 05:15:08;;;;;;;2.25;1.70;;;13.50;78.00;;;;;;5114805;28;20035;-35
2023/09/25 05:17:37;;;;;;;3.63;1.70;;;13.50;78.00;;;;;;5096227;28;20392;-37
2023/09/25 05:20:11;;;;;;;3.28;1.58;;;13.40;78.00;;;;;;5096084;28;20031;-39
2023/09/25 05:22:42;;;;;;;2.05;1.40;;;13.50;78.10;;;;;;5095986;28;20020;-40
2023/09/25 05:25:10;;;;;;;1.58;1.40;;;13.50;78.10;;;;;;5114668;28;20031;-30
2023/09/25 05:27:37;;;;;;;2.40;1.55;;;13.40;78.10;;;;;;5114323;28;20551;-35
2023/09/25 05:30:10;;;;;;;3.08;1.58;;;13.40;78.10;;;;;;5114076;28;20503;-32
2023/09/25 05:32:36;;;;;;;3.33;1.60;;;13.40;78.10;;;;;;5114154;28;20593;-33
2023/09/25 05:35:04;;;;;;;1.52;1.40;;;13.40;78.10;;;;;;5113863;28;20115;-29
2023/09/25 05:37:29;;;;;;;2.40;1.65;;;13.40;78.10;;;;;;5113963;28;20031;-34
2023/09/25 05:39:55;;;;;;;1.33;1.20;;;13.40;78.10;;;;;;5113908;28;20404;-30
2023/09/25 05:42:20;;;;;;;4.50;1.60;;;13.40;78.10;;;;;;5113776;28;20482;-32
2023/09/25 05:44:46;;;;;;;1.92;1.50;;;13.40;78.00;;;;;;5113900;28;20106;-29
2023/09/25 05:47:12;;;;;;;2.25;1.58;;;13.40;77.90;;;;;;5113491;28;20028;-30
2023/09/25 05:49:37;;;;;;;2.83;1.42;;;13.40;77.90;;;;;;5113502;28;20072;-29
2023/09/25 05:52:03;;;;;;;2.88;1.55;;;13.40;77.80;;;;;;5113415;28;20042;-33
2023/09/25 05:54:30;;;;;;;6.15;1.73;;;13.50;77.80;;;;;;5113516;28;20024;-30
2023/09/25 05:56:55;;;;;;;3.72;1.52;;;13.50;77.70;;;;;;5113725;28;20396;-29
2023/09/25 05:59:21;;;;;;;2.85;1.40;;;13.50;77.50;;;;;;5113565;28;20031;-29
2023/09/25 06:01:47;;;;;;;2.38;1.20;;;13.50;77.40;;;;;;5113674;28;20176;-26
2023/09/25 06:04:12;;;;;;;1.67;1.30;;;13.60;77.50;;;;;;5113384;28;20025;-27
2023/09/25 06:06:38;;;;;;;2.15;1.40;;;13.60;77.30;;;;;;5113700;28;20376;-37
2023/09/25 06:09:08;;;;;;;1.88;1.25;;;13.70;77.30;;;;;;5113303;28;20412;-29
2023/09/25 06:11:37;;;;;;;1.65;1.45;;;13.70;77.20;;;;;;5113259;28;20028;-29
2023/09/25 06:14:02;;;;;;;2.05;1.50;;;13.70;77.10;;;;;;5113540;28;20028;-29
2023/09/25 06:16:28;;;;;;;5.88;2.10;;;13.70;77.00;;;;;;5113565;28;20034;-29
2023/09/25 06:18:53;;;;;;;2.25;1.60;;;13.80;76.90;;;;;;5112835;28;20023;-29
2023/09/25 06:21:19;;;;;;;2.70;1.42;;;13.80;76.80;;;;;;5112901;28;20047;-27
2023/09/25 06:23:47;;;;;;;3.53;1.45;;;13.80;76.70;;;;;;5094526;28;20024;-29
2023/09/25 06:26:12;;;;;;;1.83;1.40;;;13.90;76.70;;;;;;5112842;28;20024;-27
2023/09/25 06:28:39;;;;;;;2.95;1.50;;;14.00;76.70;;;;;;5112491;28;20077;-31
2023/09/25 06:31:04;;;;;;;2.17;1.42;;;14.00;76.60;;;;;;5111795;28;20114;-43
2023/09/25 06:33:30;;;;;;;3.72;1.30;;;14.00;76.50;;;;;;5112250;28;20114;-43
2023/09/25 06:35:55;;;;;;;2.58;1.40;;;14.10;76.40;;;;;;5112519;28;20027;-36
2023/09/25 06:38:22;;;;;;;3.05;1.65;;;14.10;76.30;;;;;;5112555;28;20404;-34
2023/09/25 06:40:47;;;;;;;1.98;1.50;;;14.20;76.20;;;;;;5112605;28;20400;-35
2023/09/25 06:43:13;;;;;;;2.60;1.30;;;14.20;76.10;;;;;;5112583;28;20032;-35
2023/09/25 06:45:40;;;;;;;1.90;1.35;;;14.20;76.00;;;;;;5112386;28;20063;-34
2023/09/25 06:48:06;;;;;;;4.90;1.73;;;14.30;75.90;;;;;;5112353;28;20378;-35
2023/09/25 06:50:31;;;;;;;4.38;1.55;;;14.30;75.80;;;;;;5112608;28;20026;-40
2023/09/25 06:52:57;;;;;;;3.20;2.05;;;14.40;75.80;;;;;;5112455;28;20433;-38
2023/09/25 06:55:23;;;;;;;3.70;1.60;;;14.40;76.40;;;;;;5112396;28;20063;-35
2023/09/25 06:57:49;;;;;;;2.65;1.67;;;14.50;75.60;;;;;;5112623;28;20385;-38
2023/09/25 07:00:15;;;;;;;3.90;1.58;;;14.60;75.60;;;;;;5112413;28;20062;-37
2023/09/25 07:02:40;;;;;;;4.68;1.73;;;14.60;75.40;;;;;;5111393;28;20098;-34
2023/09/25 07:05:06;;;;;;;4.45;1.90;;;14.60;75.30;;;;;;5112665;28;20068;-36
2023/09/25 07:07:32;;;;;;;2.85;1.80;;;14.70;75.30;;;;;;5112356;28;20019;-35
2023/09/25 07:09:58;;;;;;;2.60;1.67;;;14.80;75.20;;;;;;5112405;28;20439;-35
2023/09/25 07:12:24;;;;;;;2.55;1.52;;;14.90;75.10;;;;;;5112107;28;20031;-36
2023/09/25 07:14:56;;;;;;;3.88;1.63;;;15.00;75.00;;;;;;5112332;28;20038;-35
2023/09/25 07:17:23;;;;;;;2.25;1.50;;;15.00;74.80;;;;;;5112502;28;20109;-41
2023/09/25 07:19:52;;;;;;;4.10;1.52;;;15.10;74.70;;;;;;5112334;28;20053;-35
2023/09/25 07:22:22;;;;;;;3.97;1.63;;;15.10;74.60;;;;;;5111840;28;20020;-35
2023/09/25 07:24:48;;;;;;;8.65;1.40;;;15.20;74.60;;;;;;5111892;28;20076;-36
2023/09/25 07:27:14;;;;;;;5.38;1.73;;;15.20;74.60;;;;;;5094188;28;20086;-35
2023/09/25 07:29:43;;;;;;;3.45;1.65;;;15.30;74.60;;;;;;5112180;28;20107;-38
2023/09/25 07:32:09;;;;;;;3.33;1.60;;;15.30;74.50;;;;;;5111846;28;20499;-33
2023/09/25 07:34:36;;;;;;;1.83;1.30;;;15.30;74.40;;;;;;5111976;28;20074;-36
2023/09/25 07:37:04;;;;;;;2.17;1.10;;;15.40;74.40;;;;;;5111754;28;20068;-34
2023/09/25 07:39:30;;;;;;;2.80;1.33;;;15.40;74.20;;;;;;5111848;28;20093;-34
2023/09/25 07:41:56;;;;;;;3.10;1.42;;;15.50;74.10;;;;;;5111679;28;20065;-36
2023/09/25 07:44:26;;;;;;;1.52;1.17;;;15.50;74.00;;;;;;5111786;28;20020;-35
2023/09/25 07:46:53;;;;;;;1.65;1.27;;;15.60;73.90;;;;;;5111978;28;20016;-36
2023/09/25 07:49:22;;;;;;;2.58;1.33;;;15.60;73.80;;;;;;5111891;28;20489;-28
2023/09/25 07:51:48;;;;;;;2.70;1.33;;;15.60;73.70;;;;;;5111609;28;20489;-29
2023/09/25 07:54:15;;;;;;;2.72;1.90;;;15.70;73.60;;;;;;5111658;28;20034;-29
2023/09/25 07:56:40;;;;;;;1.73;1.55;;;15.70;73.50;;;;;;5111677;28;20020;-43
2023/09/25 07:59:08;;;;;;;4.60;1.58;;;15.80;73.30;;;;;;5111504;28;20031;-43
2023/09/25 08:01:34;;;;;;;1.92;1.45;;;15.80;73.20;;;;;;5111559;28;20016;-35
2023/09/25 08:04:00;;;;;;;3.47;1.58;;;15.90;73.10;;;;;;5111701;28;20069;-36
2023/09/25 08:06:27;;;;;;;1.90;1.30;;;15.90;72.90;;;;;;5111775;28;20465;-36
2023/09/25 08:08:53;;;;;;;3.75;1.58;;;16.00;72.70;;;;;;5111663;28;20031;-36
2023/09/25 08:11:19;;;;;;;4.03;1.70;;;16.10;72.60;;;;;;5111545;28;20103;-33
2023/09/25 08:13:44;;;;;;;3.55;1.58;;;16.20;72.40;;;;;;5114577;28;20107;-34
2023/09/25 08:16:10;;;;;;;3.05;1.27;;;16.20;72.80;;;;;;5115858;28;20022;-34
2023/09/25 08:18:36;;;;;;;2.10;1.40;;;16.30;72.00;;;;;;5115492;28;20076;-36
2023/09/25 08:21:04;;;;;;;1.63;1.40;;;16.30;72.00;;;;;;5115634;28;20085;-39
2023/09/25 08:23:30;;;;;;;2.47;1.30;;;16.30;71.70;;;;;;5097339;28;20053;-36
2023/09/25 08:25:56;;;;;;;2.70;1.67;;;16.40;71.50;;;;;;5115505;28;20133;-35
2023/09/25 08:28:22;;;;;;;3.90;2.25;;;16.40;71.30;;;;;;5115196;28;20070;-36
2023/09/25 08:30:49;;;;;;;2.67;1.60;;;16.50;71.20;;;;;;5115594;28;20512;-35
2023/09/25 08:33:15;;;;;;;3.28;1.90;;;16.60;71.10;;;;;;5115448;28;20051;-36
2023/09/25 08:35:44;;;;;;;3.10;1.80;;;16.60;71.00;;;;;;5115301;28;20098;-34
2023/09/25 08:38:09;;;;;;;4.22;1.40;;;16.70;70.80;;;;;;5115198;28;20027;-34
2023/09/25 08:40:38;;;;;;;2.47;1.60;;;16.80;71.10;;;;;;5115225;28;20034;-38
2023/09/25 08:43:05;;;;;;;2.65;1.52;;;16.80;70.80;;;;;;5115028;28;20015;-34
2023/09/25 08:45:32;;;;;;;3.13;1.63;;;16.90;70.70;;;;;;5114914;28;20024;-35
2023/09/25 08:47:57;;;;;;;2.22;1.50;;;16.90;70.80;;;;;;5115167;28;20051;-36
2023/09/25 08:50:24;;;;;;;2.78;1.30;;;17.10;70.70;;;;;;5115112;28;20031;-34
2023/09/25 08:52:50;;;;;;;2.63;1.48;;;17.10;70.50;;;;;;5115049;28;20103;-36
2023/09/25 08:55:16;;;;;;;3.80;1.85;;;17.20;70.60;;;;;;5114838;28;20050;-37
2023/09/25 08:57:43;;;;;;;2.63;1.30;;;17.20;70.80;;;;;;5115005;28;20537;-36
2023/09/25 09:00:14;;;;;;;2.40;1.40;;;17.40;70.50;;;;;;5114780;28;20024;-43
2023/09/25 09:02:40;;;;;;;2.13;1.50;;;17.50;70.30;;;;;;5114767;28;20030;-35
2023/09/25 09:05:08;;;;;;;2.33;1.55;;;17.50;70.30;;;;;;5114779;28;20062;-41
2023/09/25 09:07:33;;;;;;;1.80;1.38;;;17.60;70.10;;;;;;5114777;28;20533;-43
2023/09/25 09:09:59;;;;;;;3.22;1.80;;;17.70;69.90;;;;;;5114666;28;20131;-36
2023/09/25 09:12:24;;;;;;;2.00;1.40;;;17.80;70.50;;;;;;5114464;28;20051;-35
2023/09/25 09:14:50;;;;;;;1.77;1.20;;;17.80;69.80;;;;;;5114604;28;20028;-36
2023/09/25 09:17:16;;;;;;;2.83;1.30;;;17.90;69.30;;;;;;5114471;28;20073;-38
2023/09/25 09:19:47;;;;;;;1.95;1.48;;;18.00;69.00;;;;;;5114369;28;20181;-33
2023/09/25 09:22:15;;;;;;;1.80;1.20;;;18.10;68.60;;;;;;5095502;28;20043;-34
2023/09/25 09:24:43;;;;;;;1.77;1.20;;;18.20;69.30;;;;;;5113348;28;20473;-35
2023/09/25 09:27:09;;;;;;;2.13;1.40;;;18.30;67.90;;;;;;5114221;28;20504;-36
2023/09/25 09:29:39;;;;;;;2.65;1.50;;;18.30;68.20;;;;;;5114220;28;20107;-36
2023/09/25 09:32:05;;;;;;;2.10;1.25;;;18.30;67.50;;;;;;5114027;28;20028;-35
2023/09/25 09:34:32;;;;;;;2.10;1.27;;;18.40;67.30;;;;;;5114272;28;20148;-34
2023/09/25 09:36:58;;;;;;;1.85;1.20;;;18.40;66.80;;;;;;5096288;28;20035;-36
2023/09/25 09:39:26;;;;;;;1.45;1.13;;;18.50;66.70;;;;;;5113946;28;20370;-36
2023/09/25 09:41:54;;;;;;;2.35;1.50;;;18.60;67.90;;;;;;5114016;28;20020;-35
2023/09/25 09:44:20;;;;;;;3.10;1.38;;;18.60;66.90;;;;;;5114062;28;20043;-36
2023/09/25 09:46:46;;;;;;;3.03;1.48;;;18.70;66.70;;;;;;5114044;28;20085;-34
2023/09/25 09:49:15;;;;;;;2.78;1.38;;;18.70;66.50;;;;;;5114200;28;20023;-36
2023/09/25 09:51:45;;;;;;;2.13;1.27;;;18.80;66.20;;;;;;5113729;28;20106;-36
2023/09/25 09:54:12;;;;;;;1.88;1.38;;;18.90;65.90;;;;;;5113791;28;20500;-35
2023/09/25 09:56:38;;;;;;;2.38;1.30;;;18.90;65.80;;;;;;5113652;28;20027;-36
2023/09/25 09:59:04;;;;;;;2.58;1.50;;;19.00;65.60;;;;;;5113609;28;20028;-35
2023/09/25 10:01:33;;;;;;;3.65;1.77;;;19.10;66.20;;;;;;5113604;28;20065;-36
2023/09/25 10:04:00;;;;;;;1.67;1.10;;;19.10;66.00;;;;;;5113737;28;20027;-35
2023/09/25 10:06:28;;;;;;;2.65;1.48;;;19.20;66.00;;;;;;5113638;28;20031;-39
2023/09/25 10:09:25;;;;;;;1.88;1.40;;;19.20;66.50;;;;;;5113603;28;20026;-34
2023/09/25 10:11:56;;;;;;;1.95;1.58;;;19.30;66.00;;;;;;5086328;28;20063;-35
2023/09/25 10:14:23;;;;;;;1.63;1.15;;;19.40;65.70;;;;;;5113361;28;20532;-35
2023/09/25 10:16:53;;;;;;;1.95;1.30;;;19.40;65.30;;;;;;5113268;28;20069;-37
2023/09/25 10:19:22;;;;;;;2.15;1.30;;;19.50;65.20;;;;;;5113090;28;20038;-35
2023/09/25 10:22:10;;;;;;;3.00;1.48;;;19.60;65.50;;;;;;5113148;28;20026;-36
2023/09/25 10:24:36;;;;;;;2.28;1.20;;;19.60;65.20;;;;;;5112936;28;20038;-35
2023/09/25 10:27:03;;;;;;;2.35;1.30;;;19.60;65.20;;;;;;5112941;28;20342;-35
2023/09/25 10:29:28;;;;;;;1.95;1.30;;;19.60;64.80;;;;;;5113133;28;20083;-36
2023/09/25 10:31:54;;;;;;;3.85;1.30;;;19.60;64.50;;;;;;5112919;28;20547;-34
2023/09/25 10:34:23;;;;;;;4.70;1.75;;;19.60;64.20;;;;;;5113340;28;20038;-35
2023/09/25 10:36:50;;;;;;;1.77;1.30;;;19.70;64.10;;;;;;5112821;28;20020;-36
2023/09/25 10:39:19;;;;;;;1.45;1.23;;;19.80;64.00;;;;;;5112797;28;20110;-34
2023/09/25 10:41:55;;;;;;;3.72;1.58;;;19.80;63.80;;;;;;5112713;28;20077;-34
2023/09/25 10:44:24;;;;;;;3.83;1.60;;;19.80;63.50;;;;;;5112770;28;20028;-35
2023/09/25 10:46:49;;;;;;;1.85;1.23;;;19.90;63.40;;;;;;5112672;28;20098;-38
2023/09/25 10:49:15;;;;;;;1.90;1.30;;;20.00;63.20;;;;;;5113005;28;20047;-36
2023/09/25 10:51:41;;;;;;;2.00;1.10;;;20.00;62.90;;;;;;5112645;28;20248;-37
2023/09/25 10:54:06;;;;;;;3.42;1.42;;;20.00;62.90;;;;;;5112403;28;20030;-35
2023/09/25 10:56:32;;;;;;;2.20;1.35;;;20.10;62.80;;;;;;5112956;28;20490;-35
2023/09/25 10:58:58;;;;;;;2.72;1.42;;;20.20;62.50;;;;;;5112390;28;20084;-36
2023/09/25 11:01:27;;;;;;;2.58;1.58;;;20.20;62.40;;;;;;5112248;28;20016;-47
2023/09/25 11:03:53;;;;;;;2.38;1.70;;;20.20;62.20;;;;;;5112384;28;20388;-38
2023/09/25 11:06:19;;;;;;;2.10;1.48;;;20.30;62.00;;;;;;5112465;28;20050;-36
2023/09/25 11:08:44;;;;;;;3.40;1.60;;;20.30;61.90;;;;;;5112430;28;20055;-32
2023/09/25 11:11:14;;;;;;;2.70;1.60;;;20.30;62.00;;;;;;5112142;28;20098;-35
2023/09/25 11:13:40;;;;;;;2.63;1.70;;;20.30;61.90;;;;;;5112360;28;20065;-37
2023/09/25 11:16:06;;;;;;;1.63;1.30;;;20.40;61.90;;;;;;5112115;28;20046;-32
2023/09/25 11:18:32;;;;;;;2.75;1.90;;;20.40;61.80;;;;;;5111970;28;20023;-34
2023/09/25 11:20:57;;;;;;;3.13;1.80;;;20.40;61.80;;;;;;5112066;28;20381;-35
2023/09/25 11:23:24;;;;;;;2.85;1.88;;;20.40;61.70;;;;;;5112021;28;20019;-35
2023/09/25 11:25:52;;;;;;;2.35;1.65;;;20.40;61.70;;;;;;5112081;28;20673;-36
2023/09/25 11:28:23;;;;;;;3.25;1.63;;;20.40;61.80;;;;;;5112041;28;20050;-35
2023/09/25 11:30:50;;;;;;;2.22;1.70;;;20.50;61.80;;;;;;5112022;28;20472;-35
2023/09/25 11:33:18;;;;;;;2.35;1.38;;;20.50;61.70;;;;;;5112135;28;20023;-36
2023/09/25 11:35:45;;;;;;;2.22;1.55;;;20.50;61.60;;;;;;5094140;28;20023;-36
2023/09/25 11:38:21;;;;;;;1.60;1.30;;;20.60;61.30;;;;;;5094085;28;20422;-36
2023/09/25 11:40:47;;;;;;;2.15;1.65;;;20.60;61.30;;;;;;5111788;28;20032;-32
2023/09/25 11:43:13;;;;;;;2.50;1.50;;;20.70;61.50;;;;;;5111943;28;20538;-35
2023/09/25 11:45:40;;;;;;;1.75;1.45;;;20.80;61.40;;;;;;5111872;28;20020;-31
2023/09/25 11:48:08;;;;;;;2.00;1.52;;;20.90;61.20;;;;;;5115839;28;20023;-32
2023/09/25 11:50:34;;;;;;;2.45;1.45;;;20.90;60.90;;;;;;5118712;28;20025;-34
2023/09/25 11:53:00;;;;;;;1.60;1.40;;;21.00;60.80;;;;;;5118565;28;20031;-32
2023/09/25 11:55:26;;;;;;;3.17;1.50;;;21.00;60.70;;;;;;5118229;28;20023;-32
2023/09/25 11:57:51;;;;;;;2.38;1.48;;;21.10;60.70;;;;;;5118585;28;20023;-34
2023/09/25 12:00:18;;;;;;;2.88;1.60;;;21.10;60.50;;;;;;5118481;28;20385;-31
2023/09/25 12:02:46;;;;;;;2.22;1.50;;;21.20;60.40;;;;;;5118525;28;20514;-31
2023/09/25 12:05:13;;;;;;;2.55;1.70;;;21.20;60.40;;;;;;5118589;28;20256;-34
2023/09/25 12:07:38;;;;;;;3.25;1.60;;;21.30;60.40;;;;;;5118411;28;20019;-32
2023/09/25 12:10:05;;;;;;;2.05;1.50;;;21.30;60.40;;;;;;5118478;28;20376;-38
2023/09/25 12:12:32;;;;;;;2.58;1.60;;;21.30;60.40;;;;;;5118255;28;20092;-31
2023/09/25 12:14:59;;;;;;;3.55;1.58;;;21.40;60.40;;;;;;5118535;28;20429;-33
2023/09/25 12:17:25;;;;;;;2.08;1.67;;;21.50;60.40;;;;;;5118326;28;20022;-32
2023/09/25 12:19:52;;;;;;;2.22;1.42;;;21.50;60.30;;;;;;5118511;28;20054;-35
2023/09/25 12:22:18;;;;;;;1.88;1.50;;;21.50;60.20;;;;;;5118051;28;20024;-34
2023/09/25 12:24:44;;;;;;;3.13;1.70;;;21.60;60.10;;;;;;5118118;28;20030;-35
2023/09/25 12:27:10;;;;;;;1.73;1.48;;;21.60;60.20;;;;;;5118106;28;20107;-36
2023/09/25 12:29:35;;;;;;;2.22;1.52;;;21.60;60.20;;;;;;5118479;28;20066;-34
2023/09/25 12:32:01;;;;;;;1.83;1.55;;;21.50;60.30;;;;;;5117980;28;20032;-34
2023/09/25 12:34:26;;;;;;;3.35;1.45;;;21.60;60.20;;;;;;5118114;28;20468;-32
2023/09/25 12:36:53;;;;;;;2.03;1.75;;;21.70;60.10;;;;;;5118158;28;20024;-30
2023/09/25 12:39:20;;;;;;;1.90;1.50;;;21.70;60.00;;;;;;5118081;28;20020;-34
2023/09/25 12:41:45;;;;;;;3.55;1.48;;;21.80;59.90;;;;;;5117989;28;20484;-30
2023/09/25 12:44:11;;;;;;;2.65;1.30;;;21.80;59.90;;;;;;5118167;28;20077;-33